Time;durP1;ratioP1;P1;durP2;ratioP2;P2;SDS_P1;SDS_P2;PMS_P1;PMS_P2;Temp;Humidity;BMP_temperature;BMP_pressure;BME280_temperature;BME280_humidity;BME280_pressure;Samples;Min_cycle;Max_cycle;Signal;HPM_P1;HPM_P2
2023/07/09 00:00:40;;;;;;;;;;;;;;;20.39;48.10;96738.25;6199657;28;19921;-70
2023/07/09 00:03:41;;;;;;;;;;;;;;;20.48;48.65;96725.72;6199765;28;19917;-69
2023/07/09 00:06:44;;;;;;;;;;;;;;;20.41;48.70;96733.59;6199572;28;19922;-69
2023/07/09 00:09:48;;;;;;;;;;;;;;;20.27;49.16;96734.19;6199486;28;20395;-71
2023/07/09 00:12:52;;;;;;;;;;;;;;;20.34;49.20;96732.56;6199552;28;19922;-70
2023/07/09 00:15:58;;;;;;;;;;;;;;;20.28;49.25;96719.84;6199669;28;19921;-70
2023/07/09 00:19:02;;;;;;;;;;;;;;;20.12;49.61;96726.81;6199072;28;20411;-71
2023/07/09 00:22:08;;;;;;;;;;;;;;;20.10;48.93;96734.16;6199436;28;19928;-70
2023/07/09 00:25:13;;;;;;;;;;;;;;;20.07;49.29;96734.50;6198729;28;20019;-71
2023/07/09 00:28:20;;;;;;;;;;;;;;;20.12;48.42;96721.47;6197975;28;19926;-70
2023/07/09 00:31:21;;;;;;;;;;;;;;;20.21;48.81;96730.34;6197560;28;20300;-70
2023/07/09 00:34:25;;;;;;;;;;;;;;;20.22;48.63;96731.19;6198974;28;20012;-69
2023/07/09 00:37:26;;;;;;;;;;;;;;;20.29;48.64;96722.34;6198012;28;20330;-71
2023/07/09 00:40:27;;;;;;;;;;;;;;;20.48;49.00;96728.41;6197775;28;19926;-72
2023/07/09 00:43:35;;;;;;;;;;;;;;;20.49;49.12;96733.56;6198626;28;19944;-69
2023/07/09 00:46:37;;;;;;;;;;;;;;;20.42;49.55;96721.88;6198595;28;20020;-71
2023/07/09 00:49:47;;;;;;;;;;;;;;;20.37;49.51;96729.56;6198135;28;19933;-70
2023/07/09 00:52:54;;;;;;;;;;;;;;;20.29;49.13;96724.19;6198507;28;19922;-70
2023/07/09 00:56:03;;;;;;;;;;;;;;;20.36;49.20;96722.53;6198589;28;19922;-70
2023/07/09 00:59:15;;;;;;;;;;;;;;;20.38;48.87;96725.88;6198448;28;20323;-69
2023/07/09 01:02:22;;;;;;;;;;;;;;;20.38;48.74;96731.22;6198322;28;20310;-71
2023/07/09 01:05:25;;;;;;;;;;;;;;;20.63;49.19;96724.94;6196140;28;20280;-71
2023/07/09 01:08:30;;;;;;;;;;;;;;;20.67;48.62;96721.94;6197622;28;19922;-70
2023/07/09 01:11:31;;;;;;;;;;;;;;;20.65;48.74;96716.75;6197934;28;19922;-70
2023/07/09 01:14:35;;;;;;;;;;;;;;;20.68;48.74;96711.06;6180371;28;19929;-71
2023/07/09 01:17:36;;;;;;;;;;;;;;;20.77;48.35;96706.56;6196569;28;19921;-70
2023/07/09 01:20:39;;;;;;;;;;;;;;;20.78;48.33;96705.56;6197530;28;19928;-69
2023/07/09 01:23:40;;;;;;;;;;;;;;;20.88;48.22;96710.75;6197176;28;20246;-70
2023/07/09 01:26:45;;;;;;;;;;;;;;;20.87;47.91;96712.59;6197630;28;19921;-69
2023/07/09 01:29:52;;;;;;;;;;;;;;;20.94;48.23;96710.91;6197446;28;20017;-71
2023/07/09 01:32:56;;;;;;;;;;;;;;;21.07;47.94;96711.22;6196254;28;19922;-70
2023/07/09 01:36:00;;;;;;;;;;;;;;;21.26;47.08;96709.22;6196967;28;20004;-70
2023/07/09 01:39:01;;;;;;;;;;;;;;;21.44;46.97;96706.34;6197112;28;19929;-71
2023/07/09 01:42:01;;;;;;;;;;;;;;;21.58;46.37;96713.66;6197264;28;19922;-69
2023/07/09 01:45:04;;;;;;;;;;;;;;;21.70;46.18;96711.44;6197454;28;19922;-70
2023/07/09 01:48:15;;;;;;;;;;;;;;;21.78;46.04;96703.38;6196864;28;19921;-71
2023/07/09 01:51:17;;;;;;;;;;;;;;;21.94;46.28;96705.16;6197201;28;20371;-70
2023/07/09 01:54:18;;;;;;;;;;;;;;;22.07;45.93;96701.91;6196663;28;19918;-71
2023/07/09 01:57:24;;;;;;;;;;;;;;;22.27;45.58;96700.47;6196995;28;19921;-71
2023/07/09 02:00:28;;;;;;;;;;;;;;;22.44;45.19;96698.53;6197156;28;19934;-69
2023/07/09 02:03:34;;;;;;;;;;;;;;;22.58;45.01;96692.38;6197110;28;20014;-69
2023/07/09 02:06:35;;;;;;;;;;;;;;;22.54;44.92;96692.94;6196636;28;19957;-70
2023/07/09 02:09:41;;;;;;;;;;;;;;;22.39;45.32;96701.75;6197124;28;20388;-69
2023/07/09 02:12:46;;;;;;;;;;;;;;;22.22;45.50;96694.81;6196719;28;19970;-71
2023/07/09 02:15:52;;;;;;;;;;;;;;;22.12;45.71;96696.84;6196966;28;19921;-70
2023/07/09 02:18:54;;;;;;;;;;;;;;;22.00;45.83;96701.78;6196738;28;20079;-72
2023/07/09 02:22:00;;;;;;;;;;;;;;;21.93;45.86;96696.28;6195259;28;19921;-70
2023/07/09 02:25:01;;;;;;;;;;;;;;;21.97;46.02;96702.13;6195344;28;20057;-70
2023/07/09 02:28:06;;;;;;;;;;;;;;;21.88;46.47;96692.44;6196150;28;20257;-71
2023/07/09 02:31:10;;;;;;;;;;;;;;;21.88;46.44;96698.66;6196598;28;20296;-70
2023/07/09 02:34:11;;;;;;;;;;;;;;;21.94;45.92;96692.59;6196704;28;19918;-70
2023/07/09 02:37:14;;;;;;;;;;;;;;;22.10;46.15;96685.47;6195971;28;19922;-70
2023/07/09 02:40:16;;;;;;;;;;;;;;;22.15;46.11;96685.78;6196784;28;20379;-69
2023/07/09 02:43:17;;;;;;;;;;;;;;;22.20;46.02;96691.50;6196003;28;20387;-70
2023/07/09 02:46:20;;;;;;;;;;;;;;;22.34;45.68;96692.56;6196284;28;19929;-70
2023/07/09 02:49:26;;;;;;;;;;;;;;;22.43;45.24;96699.53;6196375;28;19926;-70
2023/07/09 02:52:27;;;;;;;;;;;;;;;22.52;44.90;96694.97;6196349;28;19922;-70
2023/07/09 02:55:30;;;;;;;;;;;;;;;22.59;44.90;96690.53;6196386;28;19924;-70
2023/07/09 02:58:33;;;;;;;;;;;;;;;22.67;44.70;96682.44;6195997;28;20020;-70
2023/07/09 03:01:35;;;;;;;;;;;;;;;22.75;44.75;96690.41;6197048;28;19941;-70
2023/07/09 03:04:39;;;;;;;;;;;;;;;22.77;44.62;96687.56;6200396;28;19929;-70
2023/07/09 03:07:43;;;;;;;;;;;;;;;22.93;44.29;96682.06;6199131;28;19921;-71
2023/07/09 03:10:44;;;;;;;;;;;;;;;23.23;43.58;96688.31;6200861;28;19925;-69
2023/07/09 03:13:48;;;;;;;;;;;;;;;23.12;43.86;96678.03;6199361;28;19944;-70
2023/07/09 03:16:48;;;;;;;;;;;;;;;23.29;43.60;96682.22;6200693;28;19922;-70
2023/07/09 03:19:50;;;;;;;;;;;;;;;23.29;43.71;96684.06;6198936;28;20011;-70
2023/07/09 03:22:53;;;;;;;;;;;;;;;23.25;43.68;96680.09;6182917;28;19928;-71
2023/07/09 03:25:57;;;;;;;;;;;;;;;23.45;43.55;96669.66;6200500;28;19928;-71
2023/07/09 03:29:03;;;;;;;;;;;;;;;23.66;42.52;96669.72;6200196;28;20076;-70
2023/07/09 03:32:08;;;;;;;;;;;;;;;23.69;42.07;96688.19;6200383;28;19925;-71
2023/07/09 03:35:15;;;;;;;;;;;;;;;23.89;40.93;96682.22;6200214;28;19921;-71
2023/07/09 03:38:19;;;;;;;;;;;;;;;24.07;39.59;96680.00;6200015;28;19921;-71
2023/07/09 03:41:20;;;;;;;;;;;;;;;24.34;38.70;96674.91;6199336;28;19922;-70
2023/07/09 03:44:21;;;;;;;;;;;;;;;24.39;37.97;96683.22;6182458;28;20003;-71
2023/07/09 03:47:25;;;;;;;;;;;;;;;24.37;38.45;96677.19;6199971;28;19922;-70
2023/07/09 03:50:26;;;;;;;;;;;;;;;24.34;38.39;96674.91;6199490;28;19926;-70
2023/07/09 03:53:27;;;;;;;;;;;;;;;24.58;38.16;96671.03;6198985;28;20289;-69
2023/07/09 03:56:31;;;;;;;;;;;;;;;24.76;37.37;96673.28;6199753;28;19921;-71
2023/07/09 03:59:32;;;;;;;;;;;;;;;24.90;37.04;96677.75;6199403;28;19977;-71
2023/07/09 04:02:37;;;;;;;;;;;;;;;24.99;37.15;96681.94;6199631;28;19921;-70
2023/07/09 04:05:40;;;;;;;;;;;;;;;25.13;36.89;96674.81;6199710;28;19972;-70
2023/07/09 04:08:43;;;;;;;;;;;;;;;25.22;36.80;96672.81;6199425;28;19922;-70
2023/07/09 04:11:47;;;;;;;;;;;;;;;25.37;36.99;96670.88;6198382;28;19922;-69
2023/07/09 04:14:48;;;;;;;;;;;;;;;25.45;36.74;96672.56;6199081;28;19961;-71
2023/07/09 04:17:52;;;;;;;;;;;;;;;25.79;36.28;96668.19;6199222;28;20019;-70
2023/07/09 04:20:57;;;;;;;;;;;;;;;25.70;36.44;96664.81;6198132;28;19922;-70
2023/07/09 04:23:58;;;;;;;;;;;;;;;25.89;36.10;96669.50;6197615;28;19927;-70
2023/07/09 04:27:02;;;;;;;;;;;;;;;25.99;35.83;96674.56;6199073;28;19922;-71
2023/07/09 04:30:04;;;;;;;;;;;;;;;26.15;35.45;96667.94;6198531;28;19922;-71
2023/07/09 04:33:09;;;;;;;;;;;;;;;26.20;35.95;96670.88;6199120;28;19922;-71
2023/07/09 04:36:12;;;;;;;;;;;;;;;26.45;35.39;96662.22;6198762;28;19922;-70
2023/07/09 04:39:14;;;;;;;;;;;;;;;26.54;35.67;96655.63;6198639;28;19921;-70
2023/07/09 04:42:20;;;;;;;;;;;;;;;26.73;35.46;96659.41;6181951;28;20273;-71
2023/07/09 04:45:24;;;;;;;;;;;;;;;27.00;34.76;96652.13;6198916;28;19921;-71
2023/07/09 04:48:25;;;;;;;;;;;;;;;27.72;33.55;96659.31;6197873;28;20003;-70
2023/07/09 04:51:28;;;;;;;;;;;;;;;29.46;31.22;96659.88;6198399;28;19943;-71
2023/07/09 04:54:32;;;;;;;;;;;;;;;31.38;28.75;96658.34;6198141;28;20307;-71
2023/07/09 04:57:37;;;;;;;;;;;;;;;33.52;26.33;96663.56;6198386;28;19945;-71
2023/07/09 05:00:41;;;;;;;;;;;;;;;35.09;24.68;96662.97;6198447;28;19924;-71
2023/07/09 05:03:45;;;;;;;;;;;;;;;35.71;23.31;96662.31;6198187;28;19921;-71
2023/07/09 05:06:49;;;;;;;;;;;;;;;36.82;22.48;96675.91;6197667;28;19917;-70
2023/07/09 05:09:50;;;;;;;;;;;;;;;38.79;20.75;96672.19;6197735;28;19925;-71
2023/07/09 05:12:56;;;;;;;;;;;;;;;40.71;20.05;96668.91;6197867;28;20302;-71
2023/07/09 05:16:02;;;;;;;;;;;;;;;42.72;19.10;96667.72;6198096;28;19921;-70
2023/07/09 05:19:06;;;;;;;;;;;;;;;44.15;16.77;96658.56;6195897;28;20331;-70
2023/07/09 05:22:08;;;;;;;;;;;;;;;44.16;16.53;96662.13;6195519;28;20311;-71
2023/07/09 05:25:11;;;;;;;;;;;;;;;42.64;15.69;96657.41;6196832;28;19921;-70
2023/07/09 05:28:15;;;;;;;;;;;;;;;42.63;17.42;96661.28;6197790;28;19921;-71
2023/07/09 05:31:20;;;;;;;;;;;;;;;44.85;15.17;96655.94;6197528;28;19922;-72
2023/07/09 05:34:26;;;;;;;;;;;;;;;46.05;13.85;96663.56;6197357;28;20396;-72
2023/07/09 05:37:31;;;;;;;;;;;;;;;45.98;14.60;96663.25;6195733;28;19973;-72
2023/07/09 05:40:38;;;;;;;;;;;;;;;44.73;15.29;96655.72;6196433;28;19925;-71
2023/07/09 05:43:44;;;;;;;;;;;;;;;43.38;16.70;96647.91;6197445;28;20390;-73
2023/07/09 05:46:46;;;;;;;;;;;;;;;44.97;13.67;96653.31;6196568;28;19921;-72
2023/07/09 05:49:49;;;;;;;;;;;;;;;45.08;14.02;96647.44;6196843;28;19922;-71
2023/07/09 05:52:54;;;;;;;;;;;;;;;44.93;14.08;96645.97;6195821;28;19922;-71
2023/07/09 05:55:57;;;;;;;;;;;;;;;44.33;14.05;96639.19;6196333;28;20392;-72
2023/07/09 05:59:07;;;;;;;;;;;;;;;46.27;12.47;96640.22;6196878;28;19926;-72
2023/07/09 06:02:12;;;;;;;;;;;;;;;46.98;12.21;96639.41;6173173;28;20491;-72
2023/07/09 06:05:20;;;;;;;;;;;;;;;47.08;11.87;96638.19;6172960;28;19918;-70
2023/07/09 06:08:23;;;;;;;;;;;;;;;47.23;12.43;96630.00;6172707;28;19922;-71
2023/07/09 06:11:30;;;;;;;;;;;;;;;47.58;11.78;96624.06;6172695;28;19957;-72
2023/07/09 06:14:36;;;;;;;;;;;;;;;47.85;12.60;96619.03;6172749;28;19922;-72
2023/07/09 06:17:37;;;;;;;;;;;;;;;49.25;10.61;96618.53;6172552;28;19922;-70
2023/07/09 06:20:45;;;;;;;;;;;;;;;49.60;10.17;96613.13;6172611;28;19973;-71
2023/07/09 06:23:47;;;;;;;;;;;;;;;49.75;10.21;96614.28;6172425;28;19977;-71
2023/07/09 06:26:53;;;;;;;;;;;;;;;49.72;10.49;96609.41;6171927;28;19922;-71
2023/07/09 06:29:56;;;;;;;;;;;;;;;50.43;10.00;96601.13;6172034;28;20422;-72
2023/07/09 06:33:02;;;;;;;;;;;;;;;50.62;10.00;96601.16;6171932;28;19926;-71
2023/07/09 06:36:08;;;;;;;;;;;;;;;51.07;9.80;96601.69;6171720;28;19925;-71
2023/07/09 06:39:14;;;;;;;;;;;;;;;50.62;10.43;96598.38;6172584;28;19926;-72
2023/07/09 06:42:17;;;;;;;;;;;;;;;51.40;9.58;96587.13;6172271;28;19928;-72
2023/07/09 06:45:21;;;;;;;;;;;;;;;51.39;9.88;96593.94;6172114;28;19922;-71
2023/07/09 06:48:26;;;;;;;;;;;;;;;51.44;10.40;96582.38;6172026;28;19922;-71
2023/07/09 06:51:30;;;;;;;;;;;;;;;53.02;9.49;96584.78;6171985;28;19922;-71
2023/07/09 06:54:37;;;;;;;;;;;;;;;54.03;8.60;96598.66;6172388;28;19933;-72
2023/07/09 06:57:41;;;;;;;;;;;;;;;53.48;8.73;96576.03;6172111;28;19922;-72
2023/07/09 07:00:45;;;;;;;;;;;;;;;52.14;9.55;96558.72;6172195;28;19926;-71
2023/07/09 07:03:47;;;;;;;;;;;;;;;51.77;9.63;96561.34;6171809;28;19922;-72
2023/07/09 07:06:50;;;;;;;;;;;;;;;52.27;9.63;96562.13;6169493;28;19917;-71
2023/07/09 07:09:55;;;;;;;;;;;;;;;53.11;8.75;96548.75;6170652;28;19993;-71
2023/07/09 07:13:01;;;;;;;;;;;;;;;53.67;7.60;96558.94;6171870;28;19955;-71
2023/07/09 07:16:04;;;;;;;;;;;;;;;53.24;7.88;96558.50;6171991;28;20001;-71
2023/07/09 07:19:09;;;;;;;;;;;;;;;52.89;8.47;96548.50;6171584;28;19925;-72
2023/07/09 07:22:11;;;;;;;;;;;;;;;53.22;8.89;96549.66;6171065;28;19921;-71
2023/07/09 07:25:13;;;;;;;;;;;;;;;53.89;7.95;96547.88;6170500;28;19970;-72
2023/07/09 07:28:17;;;;;;;;;;;;;;;53.86;7.42;96548.66;6171112;28;19922;-72
2023/07/09 07:31:23;;;;;;;;;;;;;;;52.51;8.11;96533.56;6171755;28;19922;-73
2023/07/09 07:34:25;;;;;;;;;;;;;;;51.49;9.06;96534.41;6170134;28;19922;-72
2023/07/09 07:37:28;;;;;;;;;;;;;;;52.20;8.65;96528.31;6171655;28;19954;-71
2023/07/09 07:40:32;;;;;;;;;;;;;;;52.83;8.71;96530.38;6169668;28;19928;-73
2023/07/09 07:43:35;;;;;;;;;;;;;;;53.12;8.18;96533.50;6171701;28;19926;-73
2023/07/09 07:46:38;;;;;;;;;;;;;;;52.17;8.54;96524.28;6172338;28;19922;-72
2023/07/09 07:49:42;;;;;;;;;;;;;;;51.32;9.01;96513.31;6175978;28;19922;-73
2023/07/09 07:52:44;;;;;;;;;;;;;;;50.71;9.54;96512.16;6175768;28;20020;-73
2023/07/09 07:55:47;;;;;;;;;;;;;;;51.43;9.02;96519.09;6175733;28;20024;-72
2023/07/09 07:58:50;;;;;;;;;;;;;;;50.55;9.12;96505.78;6175787;28;19922;-72
2023/07/09 08:01:53;;;;;;;;;;;;;;;50.85;8.96;96497.63;6175636;28;20420;-72
2023/07/09 08:04:56;;;;;;;;;;;;;;;49.98;9.76;96498.97;6175226;28;19922;-72
2023/07/09 08:07:59;;;;;;;;;;;;;;;49.80;9.73;96485.38;6175453;28;20020;-71
2023/07/09 08:11:07;;;;;;;;;;;;;;;50.29;9.50;96484.88;6175321;28;20033;-71
2023/07/09 08:14:10;;;;;;;;;;;;;;;50.05;9.45;96490.72;6175378;28;19984;-72
2023/07/09 08:17:13;;;;;;;;;;;;;;;50.62;9.15;96483.56;6173625;28;19922;-72
2023/07/09 08:20:16;;;;;;;;;;;;;;;51.21;9.04;96489.84;6173247;28;19922;-73
2023/07/09 08:23:19;;;;;;;;;;;;;;;51.76;8.62;96478.38;6175250;28;19928;-72
2023/07/09 08:26:24;;;;;;;;;;;;;;;52.42;8.31;96490.13;6175039;28;20016;-72
2023/07/09 08:29:29;;;;;;;;;;;;;;;52.39;7.91;96491.72;6174969;28;20020;-72
2023/07/09 08:32:35;;;;;;;;;;;;;;;52.29;8.17;96479.13;6157662;28;20288;-71
2023/07/09 08:35:38;;;;;;;;;;;;;;;51.85;8.22;96484.53;6174883;28;20019;-72
2023/07/09 08:38:42;;;;;;;;;;;;;;;51.27;8.47;96467.94;6174466;28;20443;-72
2023/07/09 08:41:49;;;;;;;;;;;;;;;50.97;8.54;96479.81;6174893;28;19973;-72
2023/07/09 08:45:04;;;;;;;;;;;;;;;50.38;8.99;96475.44;6174703;28;19928;-72
2023/07/09 08:48:19;;;;;;;;;;;;;;;50.89;8.48;96461.25;6174721;28;19933;-72
2023/07/09 08:51:33;;;;;;;;;;;;;;;50.67;8.84;96462.84;6174362;28;19944;-72
2023/07/09 08:54:36;;;;;;;;;;;;;;;51.16;8.67;96454.56;6173463;28;19922;-72
2023/07/09 08:57:40;;;;;;;;;;;;;;;52.08;8.05;96454.41;6174115;28;20013;-71
2023/07/09 09:00:54;;;;;;;;;;;;;;;51.54;8.30;96458.38;6172320;28;20020;-72
2023/07/09 09:04:03;;;;;;;;;;;;;;;51.09;8.43;96437.63;6173519;28;19944;-72
2023/07/09 09:07:05;;;;;;;;;;;;;;;51.23;8.41;96444.66;6174061;28;19929;-72
2023/07/09 09:10:12;;;;;;;;;;;;;;;51.34;8.45;96431.66;6174046;28;19926;-72
2023/07/09 09:13:16;;;;;;;;;;;;;;;51.24;8.71;96429.44;6173879;28;20359;-72
2023/07/09 09:16:25;;;;;;;;;;;;;;;50.80;9.09;96429.88;6173825;28;19928;-73
2023/07/09 09:19:28;;;;;;;;;;;;;;;50.64;9.25;96435.59;6173783;28;20024;-73
2023/07/09 09:22:36;;;;;;;;;;;;;;;49.23;9.84;96430.84;6173612;28;20303;-70
2023/07/09 09:25:41;;;;;;;;;;;;;;;49.37;9.52;96428.41;6173753;28;20402;-72
2023/07/09 09:28:44;;;;;;;;;;;;;;;49.10;9.88;96434.91;6173288;28;19928;-74
2023/07/09 09:31:50;;;;;;;;;;;;;;;48.89;10.28;96419.19;6173568;28;20020;-72
2023/07/09 09:34:54;;;;;;;;;;;;;;;48.40;10.55;96436.19;6173253;28;20387;-72
2023/07/09 09:37:58;;;;;;;;;;;;;;;48.35;10.31;96422.50;6173438;28;19922;-71
2023/07/09 09:41:02;;;;;;;;;;;;;;;48.23;10.39;96419.78;6173105;28;19922;-73
2023/07/09 09:44:06;;;;;;;;;;;;;;;47.62;10.56;96415.94;6173309;28;19925;-73
2023/07/09 09:47:10;;;;;;;;;;;;;;;47.90;10.95;96401.25;6173259;28;20061;-72
2023/07/09 09:50:21;;;;;;;;;;;;;;;48.28;10.57;96406.38;6171855;28;20306;-72
2023/07/09 09:53:24;;;;;;;;;;;;;;;47.94;10.73;96396.59;6173205;28;20024;-71
2023/07/09 09:56:31;;;;;;;;;;;;;;;46.69;11.28;96393.38;6172825;28;19929;-72
2023/07/09 09:59:36;;;;;;;;;;;;;;;45.01;12.13;96382.22;6172329;28;19922;-72
2023/07/09 10:02:42;;;;;;;;;;;;;;;44.14;12.71;96379.66;6171526;28;19922;-72
2023/07/09 10:05:50;;;;;;;;;;;;;;;43.57;13.31;96382.59;6171599;28;20307;-71
2023/07/09 10:09:05;;;;;;;;;;;;;;;43.77;13.09;96363.66;6172586;28;20306;-72
2023/07/09 10:12:08;;;;;;;;;;;;;;;44.34;12.91;96374.56;6173193;28;20016;-72
2023/07/09 10:15:11;;;;;;;;;;;;;;;43.60;12.97;96370.84;6173220;28;20271;-72
2023/07/09 10:18:15;;;;;;;;;;;;;;;42.63;13.86;96361.69;6172519;28;19922;-72
2023/07/09 10:21:31;;;;;;;;;;;;;;;42.44;14.63;96360.00;6172536;28;20351;-71
2023/07/09 10:24:34;;;;;;;;;;;;;;;42.33;14.25;96353.09;6172574;28;20299;-71
2023/07/09 10:27:48;;;;;;;;;;;;;;;42.72;13.84;96354.25;6172263;28;20336;-72
2023/07/09 10:30:58;;;;;;;;;;;;;;;43.11;14.17;96350.66;6172226;28;20012;-72
2023/07/09 10:34:10;;;;;;;;;;;;;;;42.21;14.12;96344.53;6172335;28;19944;-72
2023/07/09 10:37:31;;;;;;;;;;;;;;;41.39;14.90;96343.69;6170246;28;19921;-72
2023/07/09 10:40:43;;;;;;;;;;;;;;;40.96;15.03;96321.97;6172601;28;19933;-72
2023/07/09 10:43:52;;;;;;;;;;;;;;;41.68;14.78;96337.81;6170709;28;20016;-72
2023/07/09 10:46:58;;;;;;;;;;;;;;;41.87;14.67;96341.22;6171895;28;19925;-72
2023/07/09 10:50:03;;;;;;;;;;;;;;;41.23;15.14;96326.66;6172075;28;19953;-72
2023/07/09 10:53:15;;;;;;;;;;;;;;;40.75;15.44;96329.84;6171884;28;20415;-72
2023/07/09 10:56:24;;;;;;;;;;;;;;;40.63;15.56;96318.53;6172145;28;20013;-73
2023/07/09 10:59:37;;;;;;;;;;;;;;;40.11;15.75;96308.38;6170100;28;19929;-73
2023/07/09 11:02:42;;;;;;;;;;;;;;;40.12;16.11;96307.25;6172137;28;19921;-72
2023/07/09 11:05:46;;;;;;;;;;;;;;;39.58;16.30;96305.94;6171518;28;19922;-71
2023/07/09 11:08:51;;;;;;;;;;;;;;;39.32;16.15;96300.00;6171955;28;20327;-72
2023/07/09 11:11:57;;;;;;;;;;;;;;;39.32;16.69;96304.69;6171854;28;20299;-72
2023/07/09 11:15:03;;;;;;;;;;;;;;;39.39;16.95;96310.66;6171794;28;19922;-72
2023/07/09 11:18:11;;;;;;;;;;;;;;;39.45;16.77;96301.19;6171821;28;19922;-72
2023/07/09 11:21:15;;;;;;;;;;;;;;;39.47;17.02;96309.97;6171915;28;19928;-71
2023/07/09 11:24:47;;;;;;;;;;;;;;;39.62;16.86;96300.66;6175091;28;20013;-72
2023/07/09 11:27:57;;;;;;;;;;;;;;;39.84;16.68;96302.81;6160125;28;20396;-73
2023/07/09 11:31:06;;;;;;;;;;;;;;;40.30;15.93;96299.25;6176207;28;19922;-71
2023/07/09 11:34:10;;;;;;;;;;;;;;;40.60;15.26;96309.69;6175984;28;20340;-73
2023/07/09 11:37:15;;;;;;;;;;;;;;;40.73;14.71;96307.25;6175908;28;19922;-72
2023/07/09 11:40:19;;;;;;;;;;;;;;;40.64;14.93;96292.56;6176023;28;20012;-72
2023/07/09 11:43:45;;;;;;;;;;;;;;;40.74;14.68;96292.34;6176117;28;20315;-72
2023/07/09 11:46:54;;;;;;;;;;;;;;;40.77;14.85;96298.09;6174434;28;19922;-72
2023/07/09 11:50:01;;;;;;;;;;;;;;;40.79;14.42;96293.06;6176012;28;19929;-73
2023/07/09 11:53:16;;;;;;;;;;;;;;;40.20;13.85;96288.41;6175816;28;19933;-72
2023/07/09 11:56:20;;;;;;;;;;;;;;;39.85;13.93;96287.91;6175488;28;19929;-73
2023/07/09 11:59:24;;;;;;;;;;;;;;;39.78;13.96;96282.78;6174356;28;20012;-72
2023/07/09 12:02:32;;;;;;;;;;;;;;;40.16;13.91;96294.50;6175560;28;20450;-73
2023/07/09 12:05:35;;;;;;;;;;;;;;;40.64;13.90;96292.56;6175508;28;20388;-72
2023/07/09 12:08:38;;;;;;;;;;;;;;;40.66;13.84;96282.06;6173993;28;19922;-72
2023/07/09 12:11:47;;;;;;;;;;;;;;;40.67;14.39;96283.69;6175476;28;19922;-73
2023/07/09 12:14:50;;;;;;;;;;;;;;;40.89;14.04;96283.75;6175562;28;19922;-72
2023/07/09 12:18:04;;;;;;;;;;;;;;;41.16;13.97;96276.56;6175299;28;20021;-73
2023/07/09 12:21:09;;;;;;;;;;;;;;;41.39;13.96;96280.19;6174883;28;19922;-73
2023/07/09 12:24:18;;;;;;;;;;;;;;;41.42;13.81;96280.38;6175029;28;19922;-72
2023/07/09 12:27:24;;;;;;;;;;;;;;;41.79;13.56;96272.88;6175183;28;19961;-72
2023/07/09 12:30:27;;;;;;;;;;;;;;;42.30;13.35;96271.56;6173647;28;19922;-73
2023/07/09 12:33:30;;;;;;;;;;;;;;;42.48;13.32;96275.25;6173234;28;19922;-73
2023/07/09 12:36:35;;;;;;;;;;;;;;;41.82;13.44;96274.22;6174459;28;19944;-73
2023/07/09 12:39:37;;;;;;;;;;;;;;;41.04;13.64;96275.13;6173732;28;20320;-73
2023/07/09 12:42:41;;;;;;;;;;;;;;;40.14;14.07;96271.97;6173409;28;20400;-72
2023/07/09 12:45:47;;;;;;;;;;;;;;;39.34;14.97;96266.69;6173348;28;19922;-72
2023/07/09 12:48:50;;;;;;;;;;;;;;;38.79;15.40;96265.19;6173132;28;19929;-74
2023/07/09 12:51:54;;;;;;;;;;;;;;;38.35;15.62;96263.47;6174520;28;19926;-72
2023/07/09 12:54:59;;;;;;;;;;;;;;;38.09;15.74;96262.13;6173062;28;20359;-73
2023/07/09 12:58:02;;;;;;;;;;;;;;;37.91;16.27;96258.97;6173874;28;19922;-73
2023/07/09 13:01:14;;;;;;;;;;;;;;;37.87;16.14;96268.88;6174043;28;20523;-73
2023/07/09 13:04:15;;;;;;;;;;;;;;;37.53;17.01;96261.50;6174019;28;19984;-71
2023/07/09 13:07:40;;;;;;;;;;;;;;;37.40;16.94;96264.88;6174248;28;19918;-72
2023/07/09 13:10:43;;;;;;;;;;;;;;;37.40;16.73;96259.41;6160445;28;19922;-72
2023/07/09 13:14:02;;;;;;;;;;;;;;;37.47;17.23;96265.34;6172295;28;19925;-73
2023/07/09 13:17:07;;;;;;;;;;;;;;;37.60;17.19;96265.88;6173796;28;20020;-72
2023/07/09 13:20:08;;;;;;;;;;;;;;;37.33;17.61;96258.88;6173162;28;20293;-72
2023/07/09 13:23:14;;;;;;;;;;;;;;;37.20;17.55;96254.03;6173726;28;20396;-73
2023/07/09 13:26:15;;;;;;;;;;;;;;;37.37;17.46;96256.38;6173095;28;19926;-72
2023/07/09 13:29:21;;;;;;;;;;;;;;;37.23;17.23;96253.50;6173272;28;20009;-73
2023/07/09 13:32:23;;;;;;;;;;;;;;;37.37;17.16;96251.75;6172516;28;19929;-72
2023/07/09 13:35:25;;;;;;;;;;;;;;;37.03;17.53;96249.78;6173323;28;19929;-72
2023/07/09 13:38:28;;;;;;;;;;;;;;;36.66;17.50;96243.91;6173178;28;19921;-73
2023/07/09 13:41:32;;;;;;;;;;;;;;;36.43;17.82;96243.41;6172579;28;19921;-73
2023/07/09 13:44:35;;;;;;;;;;;;;;;36.20;17.60;96239.38;6171777;28;20249;-73
2023/07/09 13:47:39;;;;;;;;;;;;;;;36.04;17.61;96227.63;6172753;28;20024;-72
2023/07/09 13:50:43;;;;;;;;;;;;;;;35.98;17.73;96229.56;6172846;28;19922;-73
2023/07/09 13:53:48;;;;;;;;;;;;;;;35.98;17.60;96225.97;6173111;28;19973;-71
2023/07/09 13:56:51;;;;;;;;;;;;;;;35.97;17.84;96233.38;6172746;28;20435;-72
2023/07/09 13:59:57;;;;;;;;;;;;;;;35.94;17.91;96222.19;6171787;28;20312;-73
2023/07/09 14:03:03;;;;;;;;;;;;;;;35.83;18.10;96226.84;6172820;28;19922;-72
2023/07/09 14:06:05;;;;;;;;;;;;;;;35.59;18.28;96226.63;6168827;28;20307;-72
2023/07/09 14:09:06;;;;;;;;;;;;;;;35.60;18.05;96221.97;6171889;28;19922;-72
2023/07/09 14:12:08;;;;;;;;;;;;;;;35.74;18.00;96221.13;6172692;28;19989;-73
2023/07/09 14:15:17;;;;;;;;;;;;;;;35.83;18.01;96228.78;6172516;28;19922;-71
2023/07/09 14:18:22;;;;;;;;;;;;;;;35.84;17.93;96228.50;6172296;28;19929;-71
2023/07/09 14:21:27;;;;;;;;;;;;;;;35.85;18.08;96223.84;6172260;28;19921;-73
2023/07/09 14:24:31;;;;;;;;;;;;;;;35.84;17.87;96223.03;6171587;28;19921;-73
2023/07/09 14:27:36;;;;;;;;;;;;;;;35.93;18.59;96226.03;6171686;28;19922;-73
2023/07/09 14:30:41;;;;;;;;;;;;;;;35.82;18.74;96225.22;6171666;28;19938;-72
2023/07/09 14:33:47;;;;;;;;;;;;;;;35.67;18.92;96227.94;6172358;28;19922;-72
2023/07/09 14:36:52;;;;;;;;;;;;;;;35.54;18.94;96223.84;6171981;28;19928;-72
2023/07/09 14:39:55;;;;;;;;;;;;;;;35.42;19.18;96226.03;6172114;28;19922;-72
2023/07/09 14:42:59;;;;;;;;;;;;;;;35.25;19.42;96227.13;6171831;28;19929;-72
2023/07/09 14:46:04;;;;;;;;;;;;;;;35.04;19.96;96236.34;6170626;28;19954;-73
2023/07/09 14:49:07;;;;;;;;;;;;;;;34.86;19.99;96234.97;6171475;28;19980;-73
2023/07/09 14:52:17;;;;;;;;;;;;;;;34.75;20.08;96225.91;6172230;28;19922;-72
2023/07/09 14:55:21;;;;;;;;;;;;;;;34.68;20.19;96222.63;6171936;28;20389;-73
2023/07/09 14:58:26;;;;;;;;;;;;;;;34.63;20.14;96230.81;6176897;28;19956;-72
2023/07/09 15:01:27;;;;;;;;;;;;;;;34.49;20.26;96232.38;6176692;28;19922;-74
2023/07/09 15:04:30;;;;;;;;;;;;;;;34.34;20.33;96223.03;6176584;28;19929;-74
2023/07/09 15:07:33;;;;;;;;;;;;;;;34.17;20.48;96233.31;6176916;28;19922;-73
2023/07/09 15:10:41;;;;;;;;;;;;;;;33.93;21.17;96227.41;6176226;28;19922;-72
2023/07/09 15:13:45;;;;;;;;;;;;;;;33.80;21.10;96220.53;6176534;28;19921;-72
2023/07/09 15:16:47;;;;;;;;;;;;;;;34.10;21.09;96214.44;6175937;28;20036;-75
2023/07/09 15:19:48;;;;;;;;;;;;;;;34.09;21.00;96217.44;6176329;28;20444;-72
2023/07/09 15:22:56;;;;;;;;;;;;;;;33.88;20.80;96225.47;6175999;28;19922;-71
2023/07/09 15:25:58;;;;;;;;;;;;;;;33.70;21.36;96223.16;6175965;28;20012;-73
2023/07/09 15:29:05;;;;;;;;;;;;;;;33.54;21.28;96220.31;6176299;28;19928;-72
2023/07/09 15:32:09;;;;;;;;;;;;;;;33.41;21.24;96215.28;6175952;28;20311;-72
2023/07/09 15:35:16;;;;;;;;;;;;;;;33.29;21.15;96212.75;6175997;28;19922;-73
2023/07/09 15:38:17;;;;;;;;;;;;;;;33.15;21.51;96218.88;6175464;28;20129;-72
2023/07/09 15:41:23;;;;;;;;;;;;;;;32.99;21.71;96218.75;6176115;28;19926;-73
2023/07/09 15:44:26;;;;;;;;;;;;;;;32.84;21.90;96215.84;6176223;28;20345;-73
2023/07/09 15:47:28;;;;;;;;;;;;;;;32.68;21.82;96212.13;6174251;28;20380;-72
2023/07/09 15:50:30;;;;;;;;;;;;;;;32.50;22.05;96221.47;6175195;28;19922;-72
2023/07/09 15:53:34;;;;;;;;;;;;;;;32.30;22.53;96221.16;6174717;28;19926;-73
2023/07/09 15:56:40;;;;;;;;;;;;;;;32.10;22.18;96217.13;6175436;28;19918;-73
2023/07/09 15:59:44;;;;;;;;;;;;;;;31.88;22.31;96225.22;6175076;28;20133;-73
2023/07/09 16:02:48;;;;;;;;;;;;;;;31.67;22.82;96228.72;6175171;28;19921;-72